sensor_id;sensor_type;location;lat;lon;timestamp;temperature;humidity
21092;DHT22;10704;42.678;23.288;2023-07-22T00:00:16;23.70;98.90
21092;DHT22;10704;42.678;23.288;2023-07-22T00:02:44;23.70;99.40
21092;DHT22;10704;42.678;23.288;2023-07-22T00:05:10;23.70;99.90
21092;DHT22;10704;42.678;23.288;2023-07-22T00:07:36;23.70;99.90
21092;DHT22;10704;42.678;23.288;2023-07-22T00:10:02;23.70;99.90
21092;DHT22;10704;42.678;23.288;2023-07-22T00:12:28;23.60;99.90
21092;DHT22;10704;42.678;23.288;2023-07-22T00:14:54;23.60;99.90
21092;DHT22;10704;42.678;23.288;2023-07-22T00:17:20;23.50;99.90
21092;DHT22;10704;42.678;23.288;2023-07-22T00:19:50;23.40;99.90
21092;DHT22;10704;42.678;23.288;2023-07-22T00:22:16;23.40;99.90
21092;DHT22;10704;42.678;23.288;2023-07-22T00:24:42;23.40;99.90
21092;DHT22;10704;42.678;23.288;2023-07-22T00:27:08;23.30;99.90
21092;DHT22;10704;42.678;23.288;2023-07-22T00:29:37;23.30;99.90
21092;DHT22;10704;42.678;23.288;2023-07-22T00:32:05;23.30;99.90
21092;DHT22;10704;42.678;23.288;2023-07-22T00:34:32;23.30;99.90
21092;DHT22;10704;42.678;23.288;2023-07-22T00:36:58;23.30;99.90
21092;DHT22;10704;42.678;23.288;2023-07-22T00:39:24;23.30;99.90
21092;DHT22;10704;42.678;23.288;2023-07-22T00:41:51;23.30;99.90
21092;DHT22;10704;42.678;23.288;2023-07-22T00:44:17;23.20;99.90
21092;DHT22;10704;42.678;23.288;2023-07-22T00:46:42;23.20;99.90
21092;DHT22;10704;42.678;23.288;2023-07-22T00:49:09;23.20;99.90
21092;DHT22;10704;42.678;23.288;2023-07-22T00:51:35;23.20;99.90
21092;DHT22;10704;42.678;23.288;2023-07-22T00:54:01;23.20;99.90
21092;DHT22;10704;42.678;23.288;2023-07-22T00:56:29;23.20;99.90
21092;DHT22;10704;42.678;23.288;2023-07-22T00:58:58;23.20;99.90
21092;DHT22;10704;42.678;23.288;2023-07-22T01:01:24;23.30;99.90
21092;DHT22;10704;42.678;23.288;2023-07-22T01:03:50;23.30;99.90
21092;DHT22;10704;42.678;23.288;2023-07-22T01:06:16;23.30;99.90
21092;DHT22;10704;42.678;23.288;2023-07-22T01:08:43;23.20;99.90
21092;DHT22;10704;42.678;23.288;2023-07-22T01:11:09;23.10;99.90
21092;DHT22;10704;42.678;23.288;2023-07-22T01:13:35;23.20;99.90
21092;DHT22;10704;42.678;23.288;2023-07-22T01:16:01;23.10;99.90
21092;DHT22;10704;42.678;23.288;2023-07-22T01:18:27;23.00;99.90
21092;DHT22;10704;42.678;23.288;2023-07-22T01:20:53;23.00;99.90
21092;DHT22;10704;42.678;23.288;2023-07-22T01:23:19;23.00;99.90
21092;DHT22;10704;42.678;23.288;2023-07-22T01:25:45;23.00;99.90
21092;DHT22;10704;42.678;23.288;2023-07-22T01:28:11;23.00;99.90
21092;DHT22;10704;42.678;23.288;2023-07-22T01:30:37;22.90;99.90
21092;DHT22;10704;42.678;23.288;2023-07-22T01:33:03;22.90;99.90
21092;DHT22;10704;42.678;23.288;2023-07-22T01:35:29;22.90;99.90
21092;DHT22;10704;42.678;23.288;2023-07-22T01:37:54;22.90;99.90
21092;DHT22;10704;42.678;23.288;2023-07-22T01:40:20;22.90;99.90
21092;DHT22;10704;42.678;23.288;2023-07-22T01:42:49;22.90;99.90
21092;DHT22;10704;42.678;23.288;2023-07-22T01:45:15;22.90;99.90
21092;DHT22;10704;42.678;23.288;2023-07-22T01:47:41;22.90;99.90
21092;DHT22;10704;42.678;23.288;2023-07-22T01:50:07;22.90;99.90
21092;DHT22;10704;42.678;23.288;2023-07-22T01:52:33;22.90;99.90
21092;DHT22;10704;42.678;23.288;2023-07-22T01:54:59;22.80;99.90
21092;DHT22;10704;42.678;23.288;2023-07-22T01:57:24;22.80;99.90
21092;DHT22;10704;42.678;23.288;2023-07-22T01:59:50;22.80;99.90
21092;DHT22;10704;42.678;23.288;2023-07-22T02:02:16;22.70;99.90
21092;DHT22;10704;42.678;23.288;2023-07-22T02:04:42;22.60;99.90
21092;DHT22;10704;42.678;23.288;2023-07-22T02:07:08;22.50;99.90
21092;DHT22;10704;42.678;23.288;2023-07-22T02:09:34;22.50;99.90
21092;DHT22;10704;42.678;23.288;2023-07-22T02:12:00;22.50;99.90
21092;DHT22;10704;42.678;23.288;2023-07-22T02:14:26;22.50;99.90
21092;DHT22;10704;42.678;23.288;2023-07-22T02:16:52;22.40;99.90
21092;DHT22;10704;42.678;23.288;2023-07-22T02:19:18;22.40;99.90
21092;DHT22;10704;42.678;23.288;2023-07-22T02:21:44;22.30;99.90
21092;DHT22;10704;42.678;23.288;2023-07-22T02:24:10;22.30;99.90
21092;DHT22;10704;42.678;23.288;2023-07-22T02:26:36;22.20;99.90
21092;DHT22;10704;42.678;23.288;2023-07-22T02:29:02;22.10;99.90
21092;DHT22;10704;42.678;23.288;2023-07-22T02:31:28;22.20;99.90
21092;DHT22;10704;42.678;23.288;2023-07-22T02:33:54;22.20;99.90
21092;DHT22;10704;42.678;23.288;2023-07-22T02:36:20;22.10;99.90
21092;DHT22;10704;42.678;23.288;2023-07-22T02:38:45;22.10;99.90
21092;DHT22;10704;42.678;23.288;2023-07-22T02:41:13;22.10;99.90
21092;DHT22;10704;42.678;23.288;2023-07-22T02:43:38;22.10;99.90
21092;DHT22;10704;42.678;23.288;2023-07-22T02:46:06;22.10;99.90
21092;DHT22;10704;42.678;23.288;2023-07-22T02:48:34;22.00;99.90
21092;DHT22;10704;42.678;23.288;2023-07-22T02:51:07;22.00;99.90
21092;DHT22;10704;42.678;23.288;2023-07-22T02:53:34;22.00;99.90
21092;DHT22;10704;42.678;23.288;2023-07-22T02:56:00;21.90;99.90
21092;DHT22;10704;42.678;23.288;2023-07-22T02:58:26;21.90;99.90
21092;DHT22;10704;42.678;23.288;2023-07-22T03:00:52;21.90;99.90
21092;DHT22;10704;42.678;23.288;2023-07-22T03:03:18;21.90;99.90
21092;DHT22;10704;42.678;23.288;2023-07-22T03:05:45;21.90;99.90
21092;DHT22;10704;42.678;23.288;2023-07-22T03:08:11;21.90;99.90
21092;DHT22;10704;42.678;23.288;2023-07-22T03:10:37;21.80;99.90
21092;DHT22;10704;42.678;23.288;2023-07-22T03:13:02;21.80;99.90
21092;DHT22;10704;42.678;23.288;2023-07-22T03:15:29;21.90;99.90
21092;DHT22;10704;42.678;23.288;2023-07-22T03:17:55;21.90;99.90
21092;DHT22;10704;42.678;23.288;2023-07-22T03:20:22;21.80;99.90
21092;DHT22;10704;42.678;23.288;2023-07-22T03:22:49;21.80;99.90
21092;DHT22;10704;42.678;23.288;2023-07-22T03:25:16;21.80;99.90
21092;DHT22;10704;42.678;23.288;2023-07-22T03:27:46;21.70;99.90
21092;DHT22;10704;42.678;23.288;2023-07-22T03:30:14;21.80;99.90
21092;DHT22;10704;42.678;23.288;2023-07-22T03:32:45;21.70;99.90
21092;DHT22;10704;42.678;23.288;2023-07-22T03:35:13;21.70;99.90
21092;DHT22;10704;42.678;23.288;2023-07-22T03:37:40;21.80;99.90
21092;DHT22;10704;42.678;23.288;2023-07-22T03:40:07;21.80;99.90
21092;DHT22;10704;42.678;23.288;2023-07-22T03:42:41;21.90;99.90
21092;DHT22;10704;42.678;23.288;2023-07-22T03:45:08;21.80;99.90
21092;DHT22;10704;42.678;23.288;2023-07-22T03:47:35;21.80;99.90
21092;DHT22;10704;42.678;23.288;2023-07-22T03:50:02;21.90;99.90
21092;DHT22;10704;42.678;23.288;2023-07-22T03:52:28;21.90;99.90
21092;DHT22;10704;42.678;23.288;2023-07-22T03:54:53;22.00;99.90
21092;DHT22;10704;42.678;23.288;2023-07-22T03:57:22;22.00;99.90
21092;DHT22;10704;42.678;23.288;2023-07-22T03:59:50;22.00;99.90
21092;DHT22;10704;42.678;23.288;2023-07-22T04:02:16;22.00;99.90
21092;DHT22;10704;42.678;23.288;2023-07-22T04:04:41;22.00;99.90
21092;DHT22;10704;42.678;23.288;2023-07-22T04:07:07;22.00;99.90
21092;DHT22;10704;42.678;23.288;2023-07-22T04:09:33;22.10;99.90
21092;DHT22;10704;42.678;23.288;2023-07-22T04:12:00;22.00;99.90
21092;DHT22;10704;42.678;23.288;2023-07-22T04:14:25;22.10;99.90
21092;DHT22;10704;42.678;23.288;2023-07-22T04:16:51;22.10;99.90
21092;DHT22;10704;42.678;23.288;2023-07-22T04:19:17;22.20;99.90
21092;DHT22;10704;42.678;23.288;2023-07-22T04:21:43;22.30;99.90
21092;DHT22;10704;42.678;23.288;2023-07-22T04:24:09;22.30;99.90
21092;DHT22;10704;42.678;23.288;2023-07-22T04:26:36;22.30;99.90
21092;DHT22;10704;42.678;23.288;2023-07-22T04:29:02;22.40;99.90
21092;DHT22;10704;42.678;23.288;2023-07-22T04:31:27;22.40;99.90
21092;DHT22;10704;42.678;23.288;2023-07-22T04:33:54;22.50;99.90
21092;DHT22;10704;42.678;23.288;2023-07-22T04:36:20;22.60;99.90
21092;DHT22;10704;42.678;23.288;2023-07-22T04:38:46;22.60;99.90
21092;DHT22;10704;42.678;23.288;2023-07-22T04:41:13;22.60;99.90
21092;DHT22;10704;42.678;23.288;2023-07-22T04:43:39;22.60;99.90
21092;DHT22;10704;42.678;23.288;2023-07-22T04:46:05;22.70;99.90
21092;DHT22;10704;42.678;23.288;2023-07-22T04:48:32;22.90;99.90
21092;DHT22;10704;42.678;23.288;2023-07-22T04:50:58;23.00;99.90
21092;DHT22;10704;42.678;23.288;2023-07-22T04:53:24;23.00;99.90
21092;DHT22;10704;42.678;23.288;2023-07-22T04:55:49;23.10;99.90
21092;DHT22;10704;42.678;23.288;2023-07-22T04:58:15;23.20;99.90
21092;DHT22;10704;42.678;23.288;2023-07-22T05:00:41;23.30;99.90
21092;DHT22;10704;42.678;23.288;2023-07-22T05:03:10;23.40;99.90
21092;DHT22;10704;42.678;23.288;2023-07-22T05:05:36;23.40;99.90
21092;DHT22;10704;42.678;23.288;2023-07-22T05:08:02;23.50;99.90
21092;DHT22;10704;42.678;23.288;2023-07-22T05:10:28;23.60;99.90
21092;DHT22;10704;42.678;23.288;2023-07-22T05:12:54;23.70;99.90
21092;DHT22;10704;42.678;23.288;2023-07-22T05:15:20;23.80;99.90
21092;DHT22;10704;42.678;23.288;2023-07-22T05:17:46;23.90;99.90
21092;DHT22;10704;42.678;23.288;2023-07-22T05:20:12;24.00;99.90
21092;DHT22;10704;42.678;23.288;2023-07-22T05:22:39;23.90;99.90
21092;DHT22;10704;42.678;23.288;2023-07-22T05:25:06;24.00;99.90
21092;DHT22;10704;42.678;23.288;2023-07-22T05:27:32;24.10;99.90
21092;DHT22;10704;42.678;23.288;2023-07-22T05:29:59;24.10;99.90
21092;DHT22;10704;42.678;23.288;2023-07-22T05:32:25;24.00;99.90
21092;DHT22;10704;42.678;23.288;2023-07-22T05:34:51;24.10;99.90
21092;DHT22;10704;42.678;23.288;2023-07-22T05:37:16;24.20;99.90
21092;DHT22;10704;42.678;23.288;2023-07-22T05:39:43;24.40;99.90
21092;DHT22;10704;42.678;23.288;2023-07-22T05:42:09;24.50;99.90
21092;DHT22;10704;42.678;23.288;2023-07-22T05:44:34;24.60;99.90
21092;DHT22;10704;42.678;23.288;2023-07-22T05:47:00;24.60;99.90
21092;DHT22;10704;42.678;23.288;2023-07-22T05:49:28;24.60;99.90
21092;DHT22;10704;42.678;23.288;2023-07-22T05:51:54;24.60;99.90
21092;DHT22;10704;42.678;23.288;2023-07-22T05:54:20;24.70;99.90
21092;DHT22;10704;42.678;23.288;2023-07-22T05:56:46;25.00;99.90
21092;DHT22;10704;42.678;23.288;2023-07-22T05:59:12;25.00;99.90
21092;DHT22;10704;42.678;23.288;2023-07-22T06:01:38;25.10;99.90
21092;DHT22;10704;42.678;23.288;2023-07-22T06:04:04;25.20;99.90
21092;DHT22;10704;42.678;23.288;2023-07-22T06:06:30;25.30;99.90
21092;DHT22;10704;42.678;23.288;2023-07-22T06:08:56;25.50;99.90
21092;DHT22;10704;42.678;23.288;2023-07-22T06:11:22;25.60;99.90
21092;DHT22;10704;42.678;23.288;2023-07-22T06:13:48;25.70;99.90
21092;DHT22;10704;42.678;23.288;2023-07-22T06:16:13;25.70;99.90
21092;DHT22;10704;42.678;23.288;2023-07-22T06:18:40;25.50;99.90
21092;DHT22;10704;42.678;23.288;2023-07-22T06:21:06;25.50;99.90
21092;DHT22;10704;42.678;23.288;2023-07-22T06:23:32;25.50;99.90
21092;DHT22;10704;42.678;23.288;2023-07-22T06:25:58;25.80;99.90
21092;DHT22;10704;42.678;23.288;2023-07-22T06:28:23;25.80;99.90
21092;DHT22;10704;42.678;23.288;2023-07-22T06:30:49;26.00;99.90
21092;DHT22;10704;42.678;23.288;2023-07-22T06:33:15;25.90;99.90
21092;DHT22;10704;42.678;23.288;2023-07-22T06:35:42;26.10;99.90
21092;DHT22;10704;42.678;23.288;2023-07-22T06:38:07;26.10;99.90
21092;DHT22;10704;42.678;23.288;2023-07-22T06:40:33;26.00;99.90
21092;DHT22;10704;42.678;23.288;2023-07-22T06:43:00;26.00;99.90
21092;DHT22;10704;42.678;23.288;2023-07-22T06:45:26;25.80;99.90
21092;DHT22;10704;42.678;23.288;2023-07-22T06:47:51;25.70;99.90
21092;DHT22;10704;42.678;23.288;2023-07-22T06:50:17;26.20;99.90
21092;DHT22;10704;42.678;23.288;2023-07-22T06:52:43;26.60;99.90
21092;DHT22;10704;42.678;23.288;2023-07-22T06:55:09;26.90;99.90
21092;DHT22;10704;42.678;23.288;2023-07-22T06:57:35;27.10;99.90
21092;DHT22;10704;42.678;23.288;2023-07-22T07:00:01;27.20;99.90
21092;DHT22;10704;42.678;23.288;2023-07-22T07:02:27;27.30;99.90
21092;DHT22;10704;42.678;23.288;2023-07-22T07:04:52;27.40;99.90
21092;DHT22;10704;42.678;23.288;2023-07-22T07:07:18;27.40;99.90
21092;DHT22;10704;42.678;23.288;2023-07-22T07:09:44;27.60;99.90
21092;DHT22;10704;42.678;23.288;2023-07-22T07:12:10;27.60;99.90
21092;DHT22;10704;42.678;23.288;2023-07-22T07:14:36;27.80;99.90
21092;DHT22;10704;42.678;23.288;2023-07-22T07:17:02;28.00;99.90
21092;DHT22;10704;42.678;23.288;2023-07-22T07:19:28;28.10;99.90
21092;DHT22;10704;42.678;23.288;2023-07-22T07:21:54;28.20;99.90
21092;DHT22;10704;42.678;23.288;2023-07-22T07:24:20;28.40;99.90
21092;DHT22;10704;42.678;23.288;2023-07-22T07:26:46;28.30;99.90
21092;DHT22;10704;42.678;23.288;2023-07-22T07:29:12;28.30;99.90
21092;DHT22;10704;42.678;23.288;2023-07-22T07:31:39;28.50;99.90
21092;DHT22;10704;42.678;23.288;2023-07-22T07:34:05;28.60;99.90
21092;DHT22;10704;42.678;23.288;2023-07-22T07:36:34;28.50;99.90
21092;DHT22;10704;42.678;23.288;2023-07-22T07:39:01;28.60;99.90
21092;DHT22;10704;42.678;23.288;2023-07-22T07:41:28;28.90;99.90
21092;DHT22;10704;42.678;23.288;2023-07-22T07:43:54;29.00;99.90
21092;DHT22;10704;42.678;23.288;2023-07-22T07:48:52;29.20;99.90
21092;DHT22;10704;42.678;23.288;2023-07-22T07:51:19;29.50;99.90
21092;DHT22;10704;42.678;23.288;2023-07-22T07:53:46;29.60;99.90
21092;DHT22;10704;42.678;23.288;2023-07-22T07:56:17;29.30;99.90
21092;DHT22;10704;42.678;23.288;2023-07-22T07:58:43;29.40;99.90
21092;DHT22;10704;42.678;23.288;2023-07-22T08:01:10;29.40;99.90
21092;DHT22;10704;42.678;23.288;2023-07-22T08:03:36;29.90;99.90
21092;DHT22;10704;42.678;23.288;2023-07-22T08:06:03;30.20;99.90
21092;DHT22;10704;42.678;23.288;2023-07-22T08:08:29;30.70;99.60
21092;DHT22;10704;42.678;23.288;2023-07-22T08:11:03;30.50;99.40
21092;DHT22;10704;42.678;23.288;2023-07-22T08:13:30;30.80;98.10
21092;DHT22;10704;42.678;23.288;2023-07-22T08:15:57;30.90;97.00
21092;DHT22;10704;42.678;23.288;2023-07-22T08:18:24;30.90;97.20
21092;DHT22;10704;42.678;23.288;2023-07-22T08:20:52;31.40;96.60
21092;DHT22;10704;42.678;23.288;2023-07-22T08:23:18;31.30;95.40
21092;DHT22;10704;42.678;23.288;2023-07-22T08:25:44;30.90;95.50
21092;DHT22;10704;42.678;23.288;2023-07-22T08:28:10;30.50;95.80
21092;DHT22;10704;42.678;23.288;2023-07-22T08:30:35;30.30;96.50
21092;DHT22;10704;42.678;23.288;2023-07-22T08:33:02;30.30;96.80
21092;DHT22;10704;42.678;23.288;2023-07-22T08:35:27;30.90;95.70
21092;DHT22;10704;42.678;23.288;2023-07-22T08:37:53;31.40;94.70
21092;DHT22;10704;42.678;23.288;2023-07-22T08:40:20;31.70;93.70
21092;DHT22;10704;42.678;23.288;2023-07-22T08:42:48;31.50;93.50
21092;DHT22;10704;42.678;23.288;2023-07-22T08:45:16;31.30;93.40
21092;DHT22;10704;42.678;23.288;2023-07-22T08:47:49;31.20;93.50
21092;DHT22;10704;42.678;23.288;2023-07-22T08:50:20;32.00;93.10
21092;DHT22;10704;42.678;23.288;2023-07-22T08:52:47;32.60;91.80
21092;DHT22;10704;42.678;23.288;2023-07-22T08:55:14;32.60;91.10
21092;DHT22;10704;42.678;23.288;2023-07-22T08:57:41;33.40;90.10
21092;DHT22;10704;42.678;23.288;2023-07-22T09:00:08;33.40;87.80
21092;DHT22;10704;42.678;23.288;2023-07-22T09:02:35;33.30;87.30
21092;DHT22;10704;42.678;23.288;2023-07-22T09:05:02;33.90;85.80
21092;DHT22;10704;42.678;23.288;2023-07-22T09:07:28;33.80;83.60
21092;DHT22;10704;42.678;23.288;2023-07-22T09:09:56;34.50;81.70
21092;DHT22;10704;42.678;23.288;2023-07-22T09:12:23;34.70;79.80
21092;DHT22;10704;42.678;23.288;2023-07-22T09:14:50;34.80;77.90
21092;DHT22;10704;42.678;23.288;2023-07-22T09:17:16;35.00;77.50
21092;DHT22;10704;42.678;23.288;2023-07-22T09:19:42;35.50;76.00
21092;DHT22;10704;42.678;23.288;2023-07-22T09:22:08;35.70;75.20
21092;DHT22;10704;42.678;23.288;2023-07-22T09:24:34;36.20;73.90
21092;DHT22;10704;42.678;23.288;2023-07-22T09:27:00;36.40;72.90
21092;DHT22;10704;42.678;23.288;2023-07-22T09:29:39;36.80;71.90
21092;DHT22;10704;42.678;23.288;2023-07-22T09:32:10;36.70;69.60
21092;DHT22;10704;42.678;23.288;2023-07-22T09:34:36;37.10;68.00
21092;DHT22;10704;42.678;23.288;2023-07-22T09:37:02;37.20;67.80
21092;DHT22;10704;42.678;23.288;2023-07-22T09:39:29;37.40;66.30
21092;DHT22;10704;42.678;23.288;2023-07-22T09:41:56;37.40;65.80
21092;DHT22;10704;42.678;23.288;2023-07-22T09:44:30;38.00;63.30
21092;DHT22;10704;42.678;23.288;2023-07-22T09:46:58;37.90;61.70
21092;DHT22;10704;42.678;23.288;2023-07-22T09:49:23;38.00;61.80
21092;DHT22;10704;42.678;23.288;2023-07-22T09:51:50;38.40;60.80
21092;DHT22;10704;42.678;23.288;2023-07-22T09:54:19;38.30;61.10
21092;DHT22;10704;42.678;23.288;2023-07-22T09:56:48;38.40;61.40
21092;DHT22;10704;42.678;23.288;2023-07-22T10:01:59;38.70;58.90
21092;DHT22;10704;42.678;23.288;2023-07-22T10:04:28;39.30;56.90
21092;DHT22;10704;42.678;23.288;2023-07-22T10:06:58;38.80;57.30
21092;DHT22;10704;42.678;23.288;2023-07-22T10:09:25;38.60;57.60
21092;DHT22;10704;42.678;23.288;2023-07-22T10:11:53;39.00;57.50
21092;DHT22;10704;42.678;23.288;2023-07-22T10:14:20;38.90;57.40
21092;DHT22;10704;42.678;23.288;2023-07-22T10:16:46;38.80;58.20
21092;DHT22;10704;42.678;23.288;2023-07-22T10:19:12;39.00;57.20
21092;DHT22;10704;42.678;23.288;2023-07-22T10:21:38;38.70;56.90
21092;DHT22;10704;42.678;23.288;2023-07-22T10:24:05;38.60;57.30
21092;DHT22;10704;42.678;23.288;2023-07-22T10:26:32;38.40;56.90
21092;DHT22;10704;42.678;23.288;2023-07-22T10:28:58;38.20;56.70
21092;DHT22;10704;42.678;23.288;2023-07-22T10:31:24;37.60;55.50
21092;DHT22;10704;42.678;23.288;2023-07-22T10:33:50;37.00;55.60
21092;DHT22;10704;42.678;23.288;2023-07-22T10:36:17;36.70;55.70
21092;DHT22;10704;42.678;23.288;2023-07-22T10:38:43;36.70;56.40
21092;DHT22;10704;42.678;23.288;2023-07-22T10:41:15;36.90;56.10
21092;DHT22;10704;42.678;23.288;2023-07-22T10:43:58;36.90;55.40
21092;DHT22;10704;42.678;23.288;2023-07-22T10:46:35;37.50;54.40
21092;DHT22;10704;42.678;23.288;2023-07-22T10:49:15;36.90;55.60
21092;DHT22;10704;42.678;23.288;2023-07-22T10:51:48;36.60;55.70
21092;DHT22;10704;42.678;23.288;2023-07-22T10:54:30;36.40;56.00
21092;DHT22;10704;42.678;23.288;2023-07-22T10:57:23;36.70;56.00
21092;DHT22;10704;42.678;23.288;2023-07-22T10:59:50;36.70;55.40
21092;DHT22;10704;42.678;23.288;2023-07-22T11:02:24;36.60;55.60
21092;DHT22;10704;42.678;23.288;2023-07-22T11:04:51;36.70;55.50
21092;DHT22;10704;42.678;23.288;2023-07-22T11:07:44;37.50;54.60
21092;DHT22;10704;42.678;23.288;2023-07-22T11:10:14;37.80;54.10
21092;DHT22;10704;42.678;23.288;2023-07-22T11:12:43;37.20;53.70
21092;DHT22;10704;42.678;23.288;2023-07-22T11:15:09;37.20;53.60
21092;DHT22;10704;42.678;23.288;2023-07-22T11:17:35;37.30;54.00
21092;DHT22;10704;42.678;23.288;2023-07-22T11:20:03;37.10;53.70
21092;DHT22;10704;42.678;23.288;2023-07-22T11:22:29;36.90;53.80
21092;DHT22;10704;42.678;23.288;2023-07-22T11:24:56;37.60;52.90
21092;DHT22;10704;42.678;23.288;2023-07-22T11:27:24;37.40;53.90
21092;DHT22;10704;42.678;23.288;2023-07-22T11:29:49;36.70;53.90
21092;DHT22;10704;42.678;23.288;2023-07-22T11:32:20;36.70;54.40
21092;DHT22;10704;42.678;23.288;2023-07-22T11:34:47;36.20;54.00
21092;DHT22;10704;42.678;23.288;2023-07-22T11:37:13;36.10;54.70
21092;DHT22;10704;42.678;23.288;2023-07-22T11:39:41;36.30;54.60
21092;DHT22;10704;42.678;23.288;2023-07-22T11:42:08;36.70;54.00
21092;DHT22;10704;42.678;23.288;2023-07-22T11:44:37;36.50;53.90
21092;DHT22;10704;42.678;23.288;2023-07-22T11:47:05;36.60;54.70
21092;DHT22;10704;42.678;23.288;2023-07-22T11:49:39;36.50;54.50
21092;DHT22;10704;42.678;23.288;2023-07-22T11:52:06;36.90;54.10
21092;DHT22;10704;42.678;23.288;2023-07-22T11:54:34;37.90;52.80
21092;DHT22;10704;42.678;23.288;2023-07-22T11:57:13;37.50;53.20
21092;DHT22;10704;42.678;23.288;2023-07-22T12:02:17;37.00;53.60
21092;DHT22;10704;42.678;23.288;2023-07-22T12:04:55;36.20;54.10
21092;DHT22;10704;42.678;23.288;2023-07-22T12:07:30;36.10;55.20
21092;DHT22;10704;42.678;23.288;2023-07-22T12:09:58;36.70;55.00
21092;DHT22;10704;42.678;23.288;2023-07-22T12:12:38;37.20;53.60
21092;DHT22;10704;42.678;23.288;2023-07-22T12:15:18;36.80;54.50
21092;DHT22;10704;42.678;23.288;2023-07-22T12:20:13;36.90;54.20
21092;DHT22;10704;42.678;23.288;2023-07-22T12:22:39;37.10;54.20
21092;DHT22;10704;42.678;23.288;2023-07-22T12:25:06;37.00;54.70
21092;DHT22;10704;42.678;23.288;2023-07-22T12:27:32;36.40;55.30
21092;DHT22;10704;42.678;23.288;2023-07-22T12:29:57;36.10;55.00
21092;DHT22;10704;42.678;23.288;2023-07-22T12:32:23;36.10;55.00
21092;DHT22;10704;42.678;23.288;2023-07-22T12:34:49;36.10;55.40
21092;DHT22;10704;42.678;23.288;2023-07-22T12:37:15;36.20;55.70
21092;DHT22;10704;42.678;23.288;2023-07-22T12:39:41;36.80;54.80
21092;DHT22;10704;42.678;23.288;2023-07-22T12:42:07;37.30;54.20
21092;DHT22;10704;42.678;23.288;2023-07-22T12:44:33;37.40;54.20
21092;DHT22;10704;42.678;23.288;2023-07-22T12:46:58;37.20;54.60
21092;DHT22;10704;42.678;23.288;2023-07-22T12:49:25;36.90;55.50
21092;DHT22;10704;42.678;23.288;2023-07-22T12:51:51;36.80;54.40
21092;DHT22;10704;42.678;23.288;2023-07-22T12:54:17;37.70;54.20
21092;DHT22;10704;42.678;23.288;2023-07-22T12:56:43;38.00;53.10
21092;DHT22;10704;42.678;23.288;2023-07-22T12:59:09;38.40;52.80
21092;DHT22;10704;42.678;23.288;2023-07-22T13:01:35;38.20;52.20
21092;DHT22;10704;42.678;23.288;2023-07-22T13:04:04;37.90;52.40
21092;DHT22;10704;42.678;23.288;2023-07-22T13:06:30;37.50;52.60
21092;DHT22;10704;42.678;23.288;2023-07-22T13:08:56;37.10;52.80
21092;DHT22;10704;42.678;23.288;2023-07-22T13:11:22;37.60;52.80
21092;DHT22;10704;42.678;23.288;2023-07-22T13:13:48;37.60;52.70
21092;DHT22;10704;42.678;23.288;2023-07-22T13:16:14;37.30;53.40
21092;DHT22;10704;42.678;23.288;2023-07-22T13:18:40;37.40;53.20
21092;DHT22;10704;42.678;23.288;2023-07-22T13:21:05;37.60;52.90
21092;DHT22;10704;42.678;23.288;2023-07-22T13:23:31;37.20;53.40
21092;DHT22;10704;42.678;23.288;2023-07-22T13:25:57;36.90;53.50
21092;DHT22;10704;42.678;23.288;2023-07-22T13:28:23;36.70;53.50
21092;DHT22;10704;42.678;23.288;2023-07-22T13:30:49;37.20;53.40
21092;DHT22;10704;42.678;23.288;2023-07-22T13:33:14;37.40;52.70
21092;DHT22;10704;42.678;23.288;2023-07-22T13:35:40;37.50;53.10
21092;DHT22;10704;42.678;23.288;2023-07-22T13:38:06;37.90;51.80
21092;DHT22;10704;42.678;23.288;2023-07-22T13:40:33;38.30;51.10
21092;DHT22;10704;42.678;23.288;2023-07-22T13:42:59;38.50;50.90
21092;DHT22;10704;42.678;23.288;2023-07-22T13:45:26;39.00;50.40
21092;DHT22;10704;42.678;23.288;2023-07-22T13:47:52;38.60;50.80
21092;DHT22;10704;42.678;23.288;2023-07-22T13:50:18;38.80;50.60
21092;DHT22;10704;42.678;23.288;2023-07-22T13:52:44;39.00;50.50
21092;DHT22;10704;42.678;23.288;2023-07-22T13:55:10;39.20;49.70
21092;DHT22;10704;42.678;23.288;2023-07-22T13:57:36;39.10;49.80
21092;DHT22;10704;42.678;23.288;2023-07-22T14:00:02;39.10;49.80
21092;DHT22;10704;42.678;23.288;2023-07-22T14:02:38;39.50;49.60
21092;DHT22;10704;42.678;23.288;2023-07-22T14:05:04;39.30;49.40
21092;DHT22;10704;42.678;23.288;2023-07-22T14:07:30;39.20;49.20
21092;DHT22;10704;42.678;23.288;2023-07-22T14:09:56;39.20;48.90
21092;DHT22;10704;42.678;23.288;2023-07-22T14:12:21;39.50;49.00
21092;DHT22;10704;42.678;23.288;2023-07-22T14:14:47;39.30;49.20
21092;DHT22;10704;42.678;23.288;2023-07-22T14:17:13;39.30;48.20
21092;DHT22;10704;42.678;23.288;2023-07-22T14:19:39;39.50;47.90
21092;DHT22;10704;42.678;23.288;2023-07-22T14:22:05;39.30;48.20
21092;DHT22;10704;42.678;23.288;2023-07-22T14:24:30;39.60;48.20
21092;DHT22;10704;42.678;23.288;2023-07-22T14:26:56;39.70;48.40
21092;DHT22;10704;42.678;23.288;2023-07-22T14:29:22;39.80;47.40
21092;DHT22;10704;42.678;23.288;2023-07-22T14:31:48;39.70;47.70
21092;DHT22;10704;42.678;23.288;2023-07-22T14:34:14;39.90;47.50
21092;DHT22;10704;42.678;23.288;2023-07-22T14:36:39;39.90;46.70
21092;DHT22;10704;42.678;23.288;2023-07-22T14:39:05;39.70;47.20
21092;DHT22;10704;42.678;23.288;2023-07-22T14:41:31;39.50;47.60
21092;DHT22;10704;42.678;23.288;2023-07-22T14:43:57;39.20;46.70
21092;DHT22;10704;42.678;23.288;2023-07-22T14:46:23;39.30;46.80
21092;DHT22;10704;42.678;23.288;2023-07-22T14:48:48;38.80;47.90
21092;DHT22;10704;42.678;23.288;2023-07-22T14:51:14;39.10;49.00
21092;DHT22;10704;42.678;23.288;2023-07-22T14:53:40;39.50;47.90
21092;DHT22;10704;42.678;23.288;2023-07-22T14:56:06;40.10;47.30
21092;DHT22;10704;42.678;23.288;2023-07-22T14:58:33;40.00;46.80
21092;DHT22;10704;42.678;23.288;2023-07-22T15:00:58;39.90;47.10
21092;DHT22;10704;42.678;23.288;2023-07-22T15:03:24;40.00;47.00
21092;DHT22;10704;42.678;23.288;2023-07-22T15:05:50;40.00;46.70
21092;DHT22;10704;42.678;23.288;2023-07-22T15:08:16;39.80;45.80
21092;DHT22;10704;42.678;23.288;2023-07-22T15:10:42;39.70;45.00
21092;DHT22;10704;42.678;23.288;2023-07-22T15:13:08;38.90;44.40
21092;DHT22;10704;42.678;23.288;2023-07-22T15:15:34;38.80;44.40
21092;DHT22;10704;42.678;23.288;2023-07-22T15:18:00;38.50;44.70
21092;DHT22;10704;42.678;23.288;2023-07-22T15:20:26;37.90;44.20
21092;DHT22;10704;42.678;23.288;2023-07-22T15:22:52;37.70;45.20